הכול
Gamurruguyurru Airport YGMG מזג אוויר
There is no TAF data available at YGMG or any nearby airports.
There is no METAR data available at YGMG. Showing METAR data for YMGB (9 mi מז').
Recent MGT METAR history (no data for YGMG)
| Date | Time (ACST) | Flight Rules | Wind Dir. | Speed | Type | Height AGL (ft) | Visibility | Temp (°C) | Temp (°F) | Dew Point (°C) | Dew Point (°F) | Rel. Humid. | Pressure | Density Altitude | Remarks |
|---|---|---|---|---|---|---|---|---|---|---|---|---|---|---|---|
| 05-מאי | 14:30 | n/a | 70° | 7 kt | Missing | 32° | 89° | 24° | 75° | 63% | 1009 mb | 2,217 ft | |||
| 05-מאי | 13:30 | n/a | 90° | 7 kt | Missing | 32° | 89° | 23° | 73° | 59% | 1010 mb | 2,188 ft | |||
| 05-מאי | 12:30 | n/a | 100° | 7 kt | Missing | 32° | 89° | 24° | 75° | 63% | 1011 mb | 2,158 ft | |||
| 05-מאי | 11:30 | n/a | 130° | 8 kt | Missing | 32° | 89° | 24° | 75° | 63% | 1011 mb | 2,158 ft | |||
| 05-מאי | 10:30 | n/a | 120° | 8 kt | Missing | 30° | 86° | 23° | 73° | 66% | 1012 mb | 1,889 ft | |||
| 05-מאי | 09:30 | n/a | 130° | 8 kt | Missing | 29° | 84° | 25° | 77° | 79% | 1013 mb | 1,739 ft | |||
| 05-מאי | 08:30 | n/a | 140° | 7 kt | Missing | 26° | 78° | 24° | 75° | 89% | 1012 mb | 1,409 ft | |||
| 05-מאי | 07:30 | n/a | 150° | 6 kt | Missing | 25° | 77° | 24° | 75° | 94% | 1012 mb | 1,289 ft | |||
| 05-מאי | 06:30 | n/a | 140° | 4 kt | Missing | 24° | 75° | 23° | 73° | 94% | 1011 mb | 1,198 ft | |||
| 05-מאי | 05:30 | n/a | 150° | 5 kt | Missing | 24° | 75° | 24° | 75° | 100% | 1010 mb | 1,228 ft | |||
| 05-מאי | 04:30 | n/a | 130° | 3 kt | Missing | 24° | 75° | 23° | 73° | 94% | 1010 mb | 1,228 ft | |||
| 05-מאי | 03:30 | n/a | 140° | 5 kt | Missing | 25° | 77° | 24° | 75° | 94% | 1011 mb | 1,318 ft | |||
| 05-מאי | 02:30 | n/a | 140° | 5 kt | Missing | 25° | 77° | 24° | 75° | 94% | 1011 mb | 1,318 ft | |||
| 05-מאי | 01:30 | n/a | 150° | 6 kt | Missing | 25° | 77° | 24° | 75° | 94% | 1011 mb | 1,318 ft | |||
| 05-מאי | 00:30 | n/a | 140° | 3 kt | Missing | 24° | 75° | 24° | 75° | 100% | 1011 mb | 1,198 ft | |||
| 04-מאי | 23:30 | n/a | 150° | 1 kt | Missing | 24° | 75° | 23° | 73° | 94% | 1012 mb | 1,169 ft | |||
| 04-מאי | 22:30 | n/a | 170° | 1 kt | Missing | 25° | 77° | 24° | 75° | 94% | 1012 mb | 1,289 ft | |||
| 04-מאי | 21:30 | n/a | Calm | Missing | 25° | 77° | 24° | 75° | 94% | 1012 mb | 1,289 ft | ||||
| 04-מאי | 20:30 | n/a | Calm | Missing | 25° | 77° | 24° | 75° | 94% | 1012 mb | 1,289 ft | ||||
| 04-מאי | 19:30 | n/a | 100° | 5 kt | Missing | 25° | 77° | 23° | 73° | 89% | 1012 mb | 1,289 ft | |||
| 04-מאי | 18:30 | n/a | 170° | 12 kt | Missing | 26° | 78° | 23° | 73° | 84% | 1011 mb | 1,438 ft | |||
| 04-מאי | 17:30 | n/a | 20° | 5 kt | Missing | 30° | 86° | 24° | 75° | 70% | 1010 mb | 1,948 ft | |||
| 04-מאי | 16:30 | n/a | 360° | 6 kt | Missing | 31° | 87° | 24° | 75° | 66% | 1009 mb | 2,097 ft | |||
| 04-מאי | 15:30 | n/a | 70° | 7 kt | Missing | 32° | 89° | 23° | 73° | 59% | 1009 mb | 2,217 ft |
כניסה לאתר
| אין תמיכה בדפדפן שלך. שדרג את הדפדפן שלך |
